Time;durP1;ratioP1;P1;durP2;ratioP2;P2;SDS_P1;SDS_P2;PMS_P1;PMS_P2;Temp;Humidity;BMP_temperature;BMP_pressure;BME280_temperature;BME280_humidity;BME280_pressure;Samples;Min_cycle;Max_cycle;Signal;HPM_P1;HPM_P2
2024/04/13 00:04:23;;;;;;;19.50;10.90;;;;;;;14.56;100.00;101295.50;11240383;26;20034;-30
2024/04/13 00:09:25;;;;;;;18.20;11.02;;;;;;;14.57;100.00;101294.66;11247844;26;20011;-31
2024/04/13 00:14:26;;;;;;;18.35;11.07;;;;;;;14.53;100.00;101295.41;11240269;26;20007;-29
2024/04/13 00:19:27;;;;;;;20.90;11.52;;;;;;;14.52;100.00;101293.59;11253941;26;19998;-29
2024/04/13 00:24:32;;;;;;;17.75;10.93;;;;;;;14.48;100.00;101292.59;11240457;26;20456;-30
2024/04/13 00:29:33;;;;;;;23.88;11.18;;;;;;;14.46;100.00;101289.03;11254353;26;20439;-29
2024/04/13 00:34:34;;;;;;;18.85;10.77;;;;;;;14.43;100.00;101283.69;11230696;26;20014;-31
2024/04/13 00:39:35;;;;;;;19.38;11.73;;;;;;;14.37;100.00;101280.84;11240905;26;20017;-30
2024/04/13 00:44:36;;;;;;;19.38;11.50;;;;;;;14.35;100.00;101280.78;11239267;26;20009;-30
2024/04/13 00:49:38;;;;;;;21.08;12.02;;;;;;;14.34;100.00;101270.25;11259456;26;19995;-29
2024/04/13 00:54:39;;;;;;;20.27;11.93;;;;;;;14.28;100.00;101270.06;11240400;26;20007;-29
2024/04/13 00:59:40;;;;;;;19.15;11.45;;;;;;;14.23;100.00;101262.00;11206686;26;20003;-30
2024/04/13 01:04:42;;;;;;;18.60;11.60;;;;;;;14.16;100.00;101255.66;11240151;26;20323;-32
2024/04/13 01:09:45;;;;;;;21.38;12.02;;;;;;;14.14;100.00;101257.38;11242429;26;20007;-29
2024/04/13 01:14:46;;;;;;;20.00;12.10;;;;;;;14.17;100.00;101253.91;11218310;26;20336;-29
2024/04/13 01:19:47;;;;;;;21.23;12.00;;;;;;;14.16;100.00;101255.66;11248576;26;19999;-31
2024/04/13 01:24:49;;;;;;;22.35;11.93;;;;;;;14.15;100.00;101251.25;11234786;26;19999;-29
2024/04/13 01:29:50;;;;;;;19.08;11.32;;;;;;;14.17;100.00;101248.66;11223404;26;20010;-31
2024/04/13 01:34:51;;;;;;;18.85;11.80;;;;;;;14.16;100.00;101241.63;11247811;26;20006;-29
2024/04/13 01:39:52;;;;;;;18.77;12.25;;;;;;;14.04;100.00;101247.38;11237222;26;19996;-33
2024/04/13 01:44:54;;;;;;;22.00;12.50;;;;;;;14.01;100.00;101249.91;11239721;26;20009;-29
2024/04/13 01:49:55;;;;;;;20.52;11.70;;;;;;;14.04;100.00;101244.75;11240574;26;20007;-31
2024/04/13 01:54:56;;;;;;;22.63;12.05;;;;;;;14.02;100.00;101256.97;11215131;26;20351;-29
2024/04/13 01:59:58;;;;;;;20.35;11.98;;;;;;;13.98;100.00;101255.06;11246130;26;20010;-30
2024/04/13 02:05:01;;;;;;;19.73;12.05;;;;;;;13.97;100.00;101249.78;11232773;26;20328;-29
2024/04/13 02:10:03;;;;;;;20.70;11.73;;;;;;;13.99;100.00;101237.59;11238826;26;19999;-30
2024/04/13 02:15:04;;;;;;;23.30;12.32;;;;;;;13.92;100.00;101245.28;11228488;26;19996;-30
2024/04/13 02:20:06;;;;;;;19.83;12.05;;;;;;;13.90;100.00;101231.19;11245007;26;20014;-28
2024/04/13 02:25:14;;;;;;;20.65;11.77;;;;;;;13.86;100.00;101241.53;11238276;26;20448;-31
2024/04/13 02:30:15;;;;;;;18.00;11.95;;;;;;;13.85;100.00;101230.13;11240512;26;19999;-30
2024/04/13 02:35:16;;;;;;;20.08;11.82;;;;;;;13.75;100.00;101224.56;11218581;26;20333;-28
2024/04/13 02:40:21;;;;;;;20.83;11.95;;;;;;;13.71;100.00;101223.56;11235471;26;20000;-28
2024/04/13 02:45:25;;;;;;;19.73;12.15;;;;;;;13.74;100.00;101220.16;11235551;26;20464;-34
2024/04/13 02:50:26;;;;;;;21.80;12.32;;;;;;;13.71;100.00;101226.19;11246451;26;20012;-31
2024/04/13 02:55:28;;;;;;;20.60;12.02;;;;;;;13.64;100.00;101214.59;11242073;26;20003;-30
2024/04/13 03:00:29;;;;;;;21.42;12.88;;;;;;;13.62;100.00;101224.13;11242389;26;20010;-28
2024/04/13 03:05:31;;;;;;;22.65;12.05;;;;;;;13.58;100.00;101219.63;11242840;26;20471;-30
2024/04/13 03:10:32;;;;;;;22.48;12.25;;;;;;;13.59;100.00;101218.78;11239331;26;20030;-28
2024/04/13 03:15:33;;;;;;;19.35;12.25;;;;;;;13.58;100.00;101213.50;11244287;26;20002;-29
2024/04/13 03:20:35;;;;;;;23.95;12.63;;;;;;;13.56;100.00;101215.16;11216955;26;20716;-28
2024/04/13 03:25:36;;;;;;;18.35;12.15;;;;;;;13.53;100.00;101212.44;11212117;26;19995;-28
2024/04/13 03:30:38;;;;;;;24.25;12.80;;;;;;;13.42;100.00;101223.47;11243138;26;20010;-28
2024/04/13 03:35:39;;;;;;;19.58;12.15;;;;;;;13.46;100.00;101227.09;11241912;26;20007;-28
2024/04/13 03:40:41;;;;;;;24.52;12.48;;;;;;;13.49;100.00;101215.81;11245231;26;20101;-28
2024/04/13 03:45:42;;;;;;;22.52;12.25;;;;;;;13.43;100.00;101227.00;11245010;26;19991;-29
2024/04/13 03:50:43;;;;;;;21.52;12.35;;;;;;;13.44;100.00;101213.91;11241198;26;20021;-28
2024/04/13 03:55:44;;;;;;;20.55;12.02;;;;;;;13.37;100.00;101216.28;11254625;26;19999;-29
2024/04/13 04:00:46;;;;;;;22.00;11.88;;;;;;;13.34;100.00;101214.44;11255197;26;20003;-28
2024/04/13 04:05:50;;;;;;;22.65;12.60;;;;;;;13.36;100.00;101220.66;11243412;26;20454;-28
2024/04/13 04:10:51;;;;;;;21.85;12.05;;;;;;;13.34;100.00;101224.06;11253998;26;20466;-28
2024/04/13 04:15:52;;;;;;;21.85;12.27;;;;;;;13.31;100.00;101219.59;11237272;26;19999;-28
2024/04/13 04:20:54;;;;;;;21.95;12.55;;;;;;;13.31;100.00;101226.56;11231430;21;20102;-33
2024/04/13 04:25:55;;;;;;;21.13;11.48;;;;;;;13.34;100.00;101218.81;11150498;26;20007;-33
2024/04/13 04:31:09;;;;;;;20.40;12.05;;;;;;;13.34;100.00;101221.44;11165362;26;20367;-33
2024/04/13 04:36:10;;;;;;;18.85;11.45;;;;;;;13.37;100.00;101225.06;11127186;26;20011;-33
2024/04/13 04:41:12;;;;;;;20.80;11.52;;;;;;;13.43;100.00;101224.38;11129915;26;19995;-33
2024/04/13 04:46:13;;;;;;;22.85;11.45;;;;;;;13.39;100.00;101233.00;11160557;26;20024;-32
2024/04/13 04:51:14;;;;;;;20.85;11.55;;;;;;;13.34;100.00;101238.06;11159841;26;20026;-33
2024/04/13 04:56:15;;;;;;;19.00;11.95;;;;;;;13.29;100.00;101239.66;11158017;26;20703;-33
2024/04/13 05:01:16;;;;;;;21.33;12.38;;;;;;;13.33;100.00;101235.41;11164462;26;19992;-33
2024/04/13 05:06:21;;;;;;;20.48;11.80;;;;;;;13.37;100.00;101234.66;11165884;26;20002;-33
2024/04/13 05:11:22;;;;;;;21.92;11.57;;;;;;;13.44;100.00;101234.03;11155331;26;20481;-33
2024/04/13 05:16:23;;;;;;;21.58;11.50;;;;;;;13.42;100.00;101243.59;11162438;26;20004;-33
2024/04/13 05:21:24;;;;;;;16.70;10.75;;;;;;;13.44;100.00;101248.03;11153867;26;20000;-35
2024/04/13 05:26:25;;;;;;;20.10;11.65;;;;;;;13.39;100.00;101239.13;11167759;26;20024;-33
2024/04/13 05:31:26;;;;;;;19.50;11.10;;;;;;;13.46;100.00;101246.38;11167424;26;19995;-33
2024/04/13 05:36:28;;;;;;;17.48;10.65;;;;;;;13.55;100.00;101245.81;11157348;26;20011;-33
2024/04/13 05:41:29;;;;;;;19.17;11.45;;;;;;;13.63;100.00;101244.31;11163599;26;20000;-35
2024/04/13 05:46:30;;;;;;;22.48;11.48;;;;;;;13.73;100.00;101247.25;11161687;26;20326;-35
2024/04/13 05:51:31;;;;;;;21.25;12.00;;;;;;;13.74;100.00;101249.94;11151066;26;20003;-35
2024/04/13 05:56:32;;;;;;;23.70;12.85;;;;;;;13.81;100.00;101253.66;11161628;26;19995;-33
2024/04/13 06:01:34;;;;;;;21.52;12.07;;;;;;;13.81;100.00;101243.16;11159629;26;20010;-32
2024/04/13 06:06:35;;;;;;;22.05;12.23;;;;;;;13.84;100.00;101249.38;11159043;26;20003;-33
2024/04/13 06:11:36;;;;;;;22.92;12.27;;;;;;;13.88;100.00;101251.25;11156979;26;20417;-33
2024/04/13 06:16:37;;;;;;;22.83;12.30;;;;;;;13.93;100.00;101244.44;11160103;26;20007;-33
2024/04/13 06:21:39;;;;;;;22.42;12.93;;;;;;;13.98;100.00;101244.56;11157692;26;20007;-33
2024/04/13 06:26:40;;;;;;;25.08;12.73;;;;;;;14.06;100.00;101244.81;11162184;26;20000;-34
2024/04/13 06:31:41;;;;;;;22.15;11.88;;;;;;;14.17;100.00;101248.66;11164093;26;20027;-34
2024/04/13 06:36:42;;;;;;;21.42;12.38;;;;;;;14.23;100.00;101240.09;11164041;26;20073;-34
2024/04/13 06:41:44;;;;;;;20.98;12.32;;;;;;;14.33;100.00;101231.63;11159611;26;19993;-33
2024/04/13 06:46:45;;;;;;;20.40;11.43;;;;;;;14.36;100.00;101229.97;11140977;26;22097;-34
2024/04/13 06:51:46;;;;;;;18.88;11.50;;;;;;;14.49;100.00;101219.81;11163768;26;20346;-34
2024/04/13 06:56:47;;;;;;;23.73;12.02;;;;;;;14.68;100.00;101211.63;11133836;26;19992;-34
2024/04/13 07:01:50;;;;;;;23.85;11.93;;;;;;;14.76;100.00;101214.50;11158816;26;19992;-34
2024/04/13 07:06:51;;;;;;;18.77;11.43;;;;;;;14.84;100.00;101212.97;11168219;26;20011;-35
2024/04/13 07:11:52;;;;;;;19.15;11.45;;;;;;;14.92;100.00;101215.81;11150803;26;20000;-34
2024/04/13 07:16:53;;;;;;;20.88;12.15;;;;;;;14.92;100.00;101213.19;11159046;26;20460;-33
2024/04/13 07:21:54;;;;;;;21.17;11.55;;;;;;;15.03;100.00;101203.84;11167921;26;20006;-33
2024/04/13 07:26:56;;;;;;;19.65;11.18;;;;;;;15.31;100.00;101190.53;11159869;26;20011;-33
2024/04/13 07:31:57;;;;;;;20.50;11.45;;;;;;;15.59;100.00;101191.25;11163385;26;20463;-34
2024/04/13 07:36:58;;;;;;;23.90;11.20;;;;;;;15.67;100.00;101188.84;11160167;26;19996;-33
2024/04/13 07:41:59;;;;;;;19.42;10.98;;;;;;;15.69;100.00;101179.22;11159725;26;20004;-33
2024/04/13 07:47:00;;;;;;;18.15;11.75;;;;;;;15.91;100.00;101183.25;11152439;26;19996;-34
2024/04/13 07:52:02;;;;;;;18.27;10.50;;;;;;;15.83;100.00;101177.81;11146324;26;20016;-34
2024/04/13 07:57:03;;;;;;;19.05;9.93;;;;;;;15.88;100.00;101173.50;11162532;26;20415;-34
2024/04/13 08:02:04;;;;;;;20.00;10.27;;;;;;;15.88;100.00;101181.41;11128901;26;20011;-34
2024/04/13 08:07:05;;;;;;;17.92;10.30;;;;;;;15.93;100.00;101178.91;11152438;26;19997;-34
2024/04/13 08:12:07;;;;;;;16.02;9.63;;;;;;;16.13;100.00;101171.44;11162494;26;20378;-33
2024/04/13 08:17:08;;;;;;;15.82;9.60;;;;;;;16.32;100.00;101178.00;11160524;26;20007;-34
2024/04/13 08:22:10;;;;;;;17.67;9.55;;;;;;;16.35;100.00;101180.69;11155610;26;20015;-34
2024/04/13 08:27:11;;;;;;;18.05;10.07;;;;;;;16.36;100.00;101182.47;11162313;26;20019;-34
2024/04/13 08:32:12;;;;;;;17.88;9.68;;;;;;;16.45;100.00;101182.66;11159278;26;20010;-34
2024/04/13 08:37:13;;;;;;;17.48;10.13;;;;;;;16.47;100.00;101178.31;11132573;26;20007;-33
2024/04/13 08:42:15;;;;;;;14.68;10.07;;;;;;;16.63;100.00;101155.78;11159015;26;20005;-34
2024/04/13 08:47:16;;;;;;;19.50;10.68;;;;;;;16.91;100.00;101158.09;11152458;26;20752;-34
2024/04/13 08:52:18;;;;;;;19.88;10.55;;;;;;;17.16;100.00;101161.19;11127435;26;20002;-33
2024/04/13 08:57:24;;;;;;;17.80;10.32;;;;;;;17.34;100.00;101153.56;11159679;26;20008;-34
2024/04/13 09:02:25;;;;;;;17.88;10.05;;;;;;;17.57;100.00;101145.09;11096457;26;20011;-34
2024/04/13 09:07:26;;;;;;;18.52;9.40;;;;;;;17.76;100.00;101143.63;11122453;26;20008;-35
2024/04/13 09:12:28;;;;;;;16.48;9.50;;;;;;;17.48;100.00;101140.59;11127026;26;20006;-34
2024/04/13 09:17:31;;;;;;;15.88;9.50;;;;;;;17.73;100.00;101133.00;11163086;26;20000;-35
2024/04/13 09:22:32;;;;;;;14.77;9.20;;;;;;;17.83;100.00;101140.28;11096873;26;20042;-34
2024/04/13 09:27:34;;;;;;;14.93;8.32;;;;;;;17.79;100.00;101142.00;11103932;26;20010;-34
2024/04/13 09:32:35;;;;;;;14.00;8.68;;;;;;;17.62;100.00;101124.94;11158204;26;20028;-34
2024/04/13 09:37:36;;;;;;;16.88;9.07;;;;;;;17.79;100.00;101128.78;11156824;26;20361;-34
2024/04/13 09:42:38;;;;;;;19.30;10.20;;;;;;;17.83;100.00;101119.13;11160075;26;20000;-34
2024/04/13 09:47:39;;;;;;;18.00;10.25;;;;;;;17.96;100.00;101120.19;11119585;26;20084;-34
2024/04/13 09:52:40;;;;;;;17.05;10.43;;;;;;;18.06;100.00;101119.41;11161577;26;20008;-34
2024/04/13 09:57:41;;;;;;;18.25;10.77;;;;;;;18.07;100.00;101098.25;11101543;26;20009;-33
2024/04/13 10:02:43;;;;;;;17.52;9.45;;;;;;;18.17;100.00;101101.91;11156490;26;20000;-33
2024/04/13 10:07:44;;;;;;;15.90;10.13;;;;;;;18.32;100.00;101086.22;11154003;26;20000;-33
2024/04/13 10:12:45;;;;;;;16.40;10.07;;;;;;;18.30;100.00;101089.75;11128056;26;19992;-33
2024/04/13 10:17:46;;;;;;;14.82;10.13;;;;;;;18.24;100.00;101079.09;11149568;26;20012;-34
2024/04/13 10:22:58;;;;;;;19.90;10.52;;;;;;;18.25;100.00;101064.97;11096410;26;19996;-34
2024/04/13 10:28:12;;;;;;;16.50;10.13;;;;;;;18.36;100.00;101052.75;11150697;26;20035;-34
2024/04/13 10:33:20;;;;;;;16.25;10.23;;;;;;;18.59;100.00;101060.06;11153810;26;19999;-33
2024/04/13 10:38:22;;;;;;;17.77;9.30;;;;;;;18.59;100.00;101041.53;11160443;26;19996;-34
2024/04/13 10:43:24;;;;;;;16.25;9.35;;;;;;;18.76;100.00;101035.53;11095029;26;20003;-33
2024/04/13 10:48:30;;;;;;;14.35;7.30;;;;;;;18.71;100.00;101026.63;11161430;26;20000;-33
2024/04/13 10:53:31;;;;;;;13.40;7.50;;;;;;;18.67;100.00;101026.59;11146510;26;20046;-33
2024/04/13 10:58:32;;;;;;;11.85;6.93;;;;;;;18.76;100.00;101017.00;11162400;26;19995;-34
2024/04/13 11:03:34;;;;;;;11.52;6.40;;;;;;;19.07;100.00;101004.00;11152360;26;20004;-33
2024/04/13 11:08:35;;;;;;;10.60;6.00;;;;;;;19.41;100.00;100997.16;11155388;26;20018;-33
2024/04/13 11:13:36;;;;;;;13.13;5.97;;;;;;;19.61;100.00;100986.63;11158851;26;20000;-33
2024/04/13 11:18:37;;;;;;;12.35;6.07;;;;;;;19.44;100.00;100985.66;11163270;26;20036;-33
2024/04/13 11:23:39;;;;;;;11.88;6.03;;;;;;;19.59;100.00;100985.75;11130348;26;19996;-34
2024/04/13 11:28:40;;;;;;;13.38;6.10;;;;;;;19.69;100.00;100973.44;11170425;26;20014;-31
2024/04/13 11:33:41;;;;;;;8.20;5.75;;;;;;;19.79;100.00;100943.44;11158453;26;19996;-32
2024/04/13 11:38:42;;;;;;;12.95;5.72;;;;;;;19.88;100.00;100943.44;11131181;26;20018;-31
2024/04/13 11:43:43;;;;;;;11.35;5.40;;;;;;;20.11;100.00;100937.31;11168150;26;19996;-32
2024/04/13 11:48:45;;;;;;;10.68;5.70;;;;;;;20.26;100.00;100923.16;11151644;26;20546;-31
2024/04/13 11:53:46;;;;;;;10.13;5.07;;;;;;;20.46;100.00;100932.03;11128678;26;20041;-32
2024/04/13 11:58:48;;;;;;;7.70;4.82;;;;;;;20.25;100.00;100908.13;11157890;26;19997;-32
2024/04/13 12:03:49;;;;;;;8.55;5.28;;;;;;;20.21;100.00;100911.69;11158019;26;19996;-31
2024/04/13 12:08:50;;;;;;;10.90;5.45;;;;;;;20.41;100.00;100896.63;11165129;26;20163;-31
2024/04/13 12:13:51;;;;;;;11.60;5.65;;;;;;;20.40;100.00;100900.19;11121366;26;19996;-31
2024/04/13 12:18:53;;;;;;;10.48;5.43;;;;;;;20.47;100.00;100896.63;11158038;26;20001;-32
2024/04/13 12:23:54;;;;;;;10.77;5.63;;;;;;;20.47;100.00;100880.69;11161695;26;19991;-31
2024/04/13 12:28:55;;;;;;;7.57;4.90;;;;;;;20.66;100.00;100884.25;11151691;26;19992;-32
2024/04/13 12:33:56;;;;;;;8.98;4.57;;;;;;;20.83;99.51;100866.50;11163850;26;20000;-33
2024/04/13 12:38:57;;;;;;;10.88;5.00;;;;;;;20.88;100.00;100860.31;11153020;26;20449;-31
2024/04/13 12:43:59;;;;;;;11.30;5.10;;;;;;;20.91;98.24;100853.22;11162322;26;20000;-33
2024/04/13 12:49:00;;;;;;;7.78;4.90;;;;;;;20.86;97.52;100844.34;11160502;26;20006;-31
2024/04/13 12:54:01;;;;;;;8.93;5.28;;;;;;;20.78;97.00;100822.25;11126623;26;20325;-32
2024/04/13 12:59:02;;;;;;;10.75;5.20;;;;;;;21.05;100.00;100810.63;11158063;26;20000;-31
2024/04/13 13:04:03;;;;;;;9.27;5.35;;;;;;;21.16;98.74;100794.66;11162783;26;20416;-33
2024/04/13 13:09:06;;;;;;;9.15;5.68;;;;;;;21.06;99.68;100785.84;11156582;26;19996;-31
2024/04/13 13:14:07;;;;;;;7.88;5.28;;;;;;;21.22;99.37;100779.56;11158567;26;20011;-31
2024/04/13 13:19:08;;;;;;;7.95;5.43;;;;;;;21.43;95.78;100762.59;11159140;26;20010;-31
2024/04/13 13:24:09;;;;;;;9.65;4.93;;;;;;;21.67;98.23;100758.91;11151779;26;20039;-31
2024/04/13 13:29:11;;;;;;;11.70;5.05;;;;;;;21.83;99.23;100741.03;11159583;26;20007;-31
2024/04/13 13:34:12;;;;;;;8.27;5.45;;;;;;;21.90;95.57;100734.75;11155956;26;21271;-31
2024/04/13 13:39:13;;;;;;;8.95;5.15;;;;;;;21.68;92.92;100727.84;11157955;26;20518;-32
2024/04/13 13:44:14;;;;;;;8.30;5.00;;;;;;;21.66;91.16;100730.53;11157159;26;20007;-32
2024/04/13 13:49:16;;;;;;;7.60;5.13;;;;;;;21.81;90.49;100718.00;11156835;26;19995;-32
2024/04/13 13:54:17;;;;;;;8.48;5.47;;;;;;;21.77;94.30;100712.69;11162093;26;20007;-33
2024/04/13 13:59:19;;;;;;;7.22;4.90;;;;;;;21.64;94.73;100688.88;11158048;26;20003;-32
2024/04/13 14:04:20;;;;;;;7.50;4.50;;;;;;;21.64;93.26;100687.09;11156707;26;20504;-31
2024/04/13 14:09:22;;;;;;;10.50;4.90;;;;;;;21.69;92.97;100684.38;11157269;26;19999;-31
2024/04/13 14:14:23;;;;;;;9.13;4.50;;;;;;;21.88;91.98;100662.03;11157098;26;20010;-32
2024/04/13 14:19:24;;;;;;;8.40;4.72;;;;;;;21.97;90.88;100664.59;11156415;26;19996;-32
2024/04/13 14:24:26;;;;;;;5.47;4.35;;;;;;;22.02;91.38;100657.47;11154942;26;20001;-31
2024/04/13 14:29:27;;;;;;;9.93;4.60;;;;;;;22.18;88.52;100652.00;11154067;26;20383;-32
2024/04/13 14:34:28;;;;;;;8.98;4.20;;;;;;;22.14;84.47;100637.81;11155559;26;20000;-32
2024/04/13 14:39:29;;;;;;;9.35;4.38;;;;;;;22.15;89.92;100628.03;11155916;26;20010;-31
2024/04/13 14:44:30;;;;;;;8.88;4.20;;;;;;;22.29;93.09;100620.78;11152426;26;20014;-32
2024/04/13 14:49:32;;;;;;;7.57;4.03;;;;;;;22.22;85.77;100616.44;11160155;26;20012;-32
2024/04/13 14:54:33;;;;;;;5.82;4.07;;;;;;;22.23;88.65;100605.78;11163343;26;20000;-31
2024/04/13 14:59:34;;;;;;;7.18;4.30;;;;;;;22.23;86.40;100596.91;11162505;26;20004;-32
2024/04/13 15:04:35;;;;;;;8.07;4.25;;;;;;;22.33;85.38;100585.25;11168664;26;20019;-32
2024/04/13 15:09:36;;;;;;;7.35;4.30;;;;;;;22.44;87.63;100575.31;11163056;26;20454;-32
2024/04/13 15:14:37;;;;;;;6.45;3.80;;;;;;;22.42;85.49;100574.47;11155793;26;20019;-32
2024/04/13 15:19:39;;;;;;;4.57;3.47;;;;;;;22.29;83.86;100571.97;11162127;26;20000;-32
2024/04/13 15:24:40;;;;;;;5.25;3.60;;;;;;;22.17;83.32;100562.34;11165149;26;20004;-31
2024/04/13 15:29:41;;;;;;;6.35;3.33;;;;;;;22.12;85.82;100564.19;11159524;26;20477;-32
2024/04/13 15:34:42;;;;;;;5.22;3.35;;;;;;;22.17;83.56;100557.94;11160830;26;20000;-31
2024/04/13 15:39:43;;;;;;;4.47;3.50;;;;;;;;;;11163517;26;20044;-34
2024/04/13 15:44:44;;;;;;;4.85;3.30;;;;;;;22.31;85.53;100546.22;11128738;26;20014;-32
2024/04/13 15:49:45;;;;;;;5.72;3.30;;;;;;;22.31;86.88;100539.09;11160896;26;19996;-31
2024/04/13 15:54:47;;;;;;;6.53;3.67;;;;;;;22.35;81.92;100530.16;11158757;26;20016;-31
2024/04/13 15:59:48;;;;;;;6.32;3.10;;;;;;;22.38;82.53;100523.91;11162796;26;20454;-32
2024/04/13 16:04:53;;;;;;;4.70;3.28;;;;;;;22.53;81.88;100514.84;11145160;26;20001;-31
2024/04/13 16:09:54;;;;;;;4.30;3.20;;;;;;;22.56;83.07;100521.00;11163643;26;20073;-32
2024/04/13 16:14:55;;;;;;;4.85;3.30;;;;;;;22.48;77.11;100512.22;11165310;26;20000;-32
2024/04/13 16:19:56;;;;;;;4.82;3.30;;;;;;;22.52;79.47;100511.31;11156474;26;20000;-32
2024/04/13 16:24:57;;;;;;;5.15;2.95;;;;;;;22.54;78.07;100492.63;11157273;26;20012;-31
2024/04/13 16:29:59;;;;;;;4.10;3.30;;;;;;;22.55;79.04;100489.94;11163888;26;20013;-32
2024/04/13 16:35:00;;;;;;;4.72;3.10;;;;;;;22.41;77.66;100487.47;11157194;26;20322;-32
2024/04/13 16:40:01;;;;;;;6.32;3.70;;;;;;;22.37;76.12;100491.09;11157620;26;19996;-32
2024/04/13 16:45:03;;;;;;;6.63;3.67;;;;;;;22.32;72.67;100479.63;11163247;26;20000;-31
2024/04/13 16:50:04;;;;;;;7.97;3.92;;;;;;;;;;11154581;26;20468;-31
2024/04/13 16:55:05;;;;;;;6.20;4.18;;;;;;;22.01;76.61;100471.13;11162600;26;20004;-31
2024/04/13 17:00:06;;;;;;;6.50;3.88;;;;;;;21.79;79.18;100467.91;11159457;26;20019;-31
2024/04/13 17:05:07;;;;;;;6.70;4.10;;;;;;;21.61;81.58;100461.03;11152259;26;20103;-32
2024/04/13 17:10:09;;;;;;;7.72;5.82;;;;;;;21.55;82.59;100455.78;11160471;26;20011;-31
2024/04/13 17:15:10;;;;;;;6.10;4.18;;;;;;;21.43;83.89;100454.13;11158128;26;19999;-31
2024/04/13 17:20:11;;;;;;;10.82;4.97;;;;;;;21.35;87.12;100452.44;11155335;26;20346;-31
2024/04/13 17:25:12;;;;;;;7.95;4.70;;;;;;;21.21;87.29;100445.47;11151946;26;19999;-30
2024/04/13 17:30:13;;;;;;;7.05;4.70;;;;;;;21.05;88.70;100428.81;11158313;26;20479;-31
2024/04/13 17:35:14;;;;;;;9.45;4.70;;;;;;;20.94;92.01;100436.03;11158694;26;19995;-31
2024/04/13 17:40:16;;;;;;;7.07;5.00;;;;;;;20.79;94.86;100426.41;11127385;26;19999;-30
2024/04/13 17:45:18;;;;;;;5.97;4.63;;;;;;;20.69;95.95;100418.56;11157105;26;20003;-31
2024/04/13 17:50:19;;;;;;;8.27;4.60;;;;;;;20.57;97.45;100412.44;11157779;26;20416;-31
2024/04/13 17:55:20;;;;;;;7.38;4.80;;;;;;;20.42;100.00;100407.22;11157799;26;20010;-30
2024/04/13 18:00:21;;;;;;;7.28;4.53;;;;;;;20.31;100.00;100402.00;11156171;26;20349;-31
2024/04/13 18:05:22;;;;;;;6.80;5.20;;;;;;;20.24;100.00;100410.03;11157511;26;20458;-31
2024/04/13 18:10:24;;;;;;;7.03;4.72;;;;;;;20.12;100.00;100403.91;11156578;26;20003;-32
2024/04/13 18:15:25;;;;;;;8.65;4.63;;;;;;;20.03;100.00;100403.09;11155533;26;20008;-31
2024/04/13 18:20:26;;;;;;;7.35;4.43;;;;;;;19.90;100.00;100400.50;11158030;26;20445;-30
2024/04/13 18:25:28;;;;;;;9.13;5.60;;;;;;;19.80;100.00;100400.56;11133611;26;20004;-31
2024/04/13 18:30:29;;;;;;;8.88;5.22;;;;;;;19.72;100.00;100416.50;11154774;26;20429;-33
2024/04/13 18:35:30;;;;;;;8.18;5.60;;;;;;;19.70;100.00;100413.88;11164890;26;19995;-32
2024/04/13 18:40:31;;;;;;;7.68;5.10;;;;;;;19.65;100.00;100413.00;11131748;26;19992;-31
2024/04/13 18:45:32;;;;;;;7.28;5.20;;;;;;;19.62;100.00;100410.34;11164067;26;20012;-32
2024/04/13 18:50:33;;;;;;;7.38;5.63;;;;;;;19.60;100.00;100409.50;11164259;26;20011;-31
2024/04/13 18:55:35;;;;;;;10.85;6.10;;;;;;;19.54;100.00;100411.28;11163064;26;20040;-32
2024/04/13 19:00:38;;;;;;;10.60;5.50;;;;;;;19.54;100.00;100405.97;11131796;26;20011;-31
2024/04/13 19:05:39;;;;;;;9.68;5.95;;;;;;;19.49;100.00;100405.97;11163603;26;20381;-32
2024/04/13 19:10:40;;;;;;;11.75;5.78;;;;;;;19.46;100.00;100406.88;11163715;26;19999;-31
2024/04/13 19:15:43;;;;;;;9.00;5.75;;;;;;;19.47;100.00;100407.75;11157806;26;19997;-31
2024/04/13 19:20:55;;;;;;;9.18;5.85;;;;;;;19.48;100.00;100418.38;11158264;26;20028;-32
2024/04/13 19:25:57;;;;;;;7.85;5.75;;;;;;;19.40;100.00;100417.50;11134495;26;20012;-32
2024/04/13 19:30:58;;;;;;;9.57;5.97;;;;;;;19.35;100.00;100418.44;11162803;26;20000;-31
2024/04/13 19:36:00;;;;;;;8.75;5.85;;;;;;;19.34;100.00;100416.63;11161457;26;20076;-31
2024/04/13 19:41:02;;;;;;;8.23;5.50;;;;;;;19.31;100.00;100414.00;11167061;26;20000;-32
2024/04/13 19:46:03;;;;;;;9.95;5.93;;;;;;;19.24;100.00;100406.06;11162949;26;20010;-32
2024/04/13 19:51:04;;;;;;;8.07;5.80;;;;;;;19.19;100.00;100391.97;11153315;26;20396;-31
2024/04/13 19:56:05;;;;;;;9.85;5.80;;;;;;;19.11;100.00;100383.16;11171891;26;20000;-32
2024/04/13 20:01:07;;;;;;;9.73;5.60;;;;;;;19.06;100.00;100387.59;11131697;26;20001;-31
2024/04/13 20:06:08;;;;;;;8.98;5.80;;;;;;;19.01;100.00;100395.53;11166995;26;20032;-31
2024/04/13 20:11:10;;;;;;;9.10;6.10;;;;;;;18.99;100.00;100389.34;11172740;26;20010;-31
2024/04/13 20:21:31;;;;;;;8.05;5.75;;;;;;;18.97;100.00;100387.63;11169186;26;20006;-31
2024/04/13 20:26:32;;;;;;;11.50;6.55;;;;;;;18.92;100.00;100373.50;11157140;26;20004;-32
2024/04/13 20:31:33;;;;;;;11.02;6.38;;;;;;;18.90;100.00;100377.91;11161357;26;20333;-32
2024/04/13 20:36:34;;;;;;;10.70;6.05;;;;;;;18.86;100.00;100386.75;11154477;26;20328;-31
2024/04/13 20:41:36;;;;;;;9.32;6.25;;;;;;;18.80;100.00;100384.97;11151395;26;20360;-31
2024/04/13 20:46:37;;;;;;;15.27;6.78;;;;;;;18.74;100.00;100380.59;11162738;26;20464;-32
2024/04/13 20:51:38;;;;;;;11.20;6.88;;;;;;;18.69;100.00;100370.84;11168066;26;20084;-31
2024/04/13 20:56:40;;;;;;;9.85;6.32;;;;;;;18.55;100.00;100373.50;11129106;26;20463;-32
2024/04/13 21:01:41;;;;;;;11.63;6.60;;;;;;;18.51;100.00;100377.03;11163473;26;20008;-31
2024/04/13 21:06:42;;;;;;;12.13;6.40;;;;;;;18.44;100.00;100375.28;11162318;26;20003;-31
2024/04/13 21:11:43;;;;;;;10.57;7.00;;;;;;;18.36;100.00;100369.97;11161891;26;20028;-32
2024/04/13 21:16:44;;;;;;;11.43;6.78;;;;;;;18.34;100.00;100358.53;11160937;26;20341;-32
2024/04/13 21:21:45;;;;;;;10.55;6.63;;;;;;;18.21;100.00;100368.22;11162793;26;19992;-31
2024/04/13 21:26:47;;;;;;;10.82;6.97;;;;;;;18.19;100.00;100367.34;11155685;26;19996;-31
2024/04/13 21:31:48;;;;;;;9.93;6.63;;;;;;;18.22;100.00;100375.28;11146252;26;20395;-32
2024/04/13 21:36:49;;;;;;;11.32;7.32;;;;;;;18.18;100.00;100378.81;11156747;26;19996;-32
2024/04/13 21:41:50;;;;;;;13.25;7.22;;;;;;;18.12;100.00;100373.50;11160333;26;20435;-31
2024/04/13 21:46:52;;;;;;;11.02;7.00;;;;;;;18.08;100.00;100370.00;11159525;26;19992;-31
2024/04/13 21:51:53;;;;;;;12.50;7.00;;;;;;;18.07;100.00;100372.59;11158305;26;20007;-31
2024/04/13 21:56:54;;;;;;;12.80;6.85;;;;;;;18.04;100.00;100362.91;11155285;26;20024;-31
2024/04/13 22:01:55;;;;;;;12.10;7.13;;;;;;;18.00;100.00;100368.19;11153176;26;19996;-32
2024/04/13 22:06:56;;;;;;;14.20;6.93;;;;;;;17.99;100.00;100364.69;11157173;26;20003;-32
2024/04/13 22:12:00;;;;;;;12.10;7.03;;;;;;;18.00;100.00;100362.91;11163284;26;19996;-32
2024/04/13 22:17:03;;;;;;;10.48;6.95;;;;;;;17.94;100.00;100350.56;11150860;26;20011;-32
2024/04/13 22:22:04;;;;;;;14.48;6.90;;;;;;;17.94;100.00;100357.63;11156145;26;20016;-31
2024/04/13 22:27:05;;;;;;;12.57;7.38;;;;;;;17.93;100.00;100354.09;11151127;26;20019;-32
2024/04/13 22:32:06;;;;;;;12.05;6.88;;;;;;;17.92;100.00;100344.41;11155338;26;20015;-31
2024/04/13 22:37:07;;;;;;;11.35;6.63;;;;;;;17.94;100.00;100363.78;11160082;26;20003;-31
2024/04/13 22:42:09;;;;;;;10.77;6.75;;;;;;;17.97;100.00;100358.50;11129626;26;20484;-32
2024/04/13 22:47:11;;;;;;;10.02;6.63;;;;;;;17.97;100.00;100361.13;11151592;26;20070;-31